Time;durP1;ratioP1;P1;durP2;ratioP2;P2;SDS_P1;SDS_P2;PMS_P1;PMS_P2;Temp;Humidity;BMP_temperature;BMP_pressure;BME280_temperature;BME280_humidity;BME280_pressure;Samples;Min_cycle;Max_cycle;Signal;HPM_P1;HPM_P2
2022/09/13 00:02:13;;;;;;;;;;;;;;;28.43;40.53;93969.19;4949410;28;9155;-60
2022/09/13 00:04:40;;;;;;;;;;;;;;;28.44;40.50;93970.66;4950646;28;7424;-60
2022/09/13 00:07:06;;;;;;;;;;;;;;;28.44;40.39;93978.22;4950789;28;7216;-60
2022/09/13 00:09:31;;;;;;;;;;;;;;;28.43;40.27;93971.94;4950754;28;7398;-60
2022/09/13 00:11:57;;;;;;;;;;;;;;;28.41;40.32;93973.75;4934695;28;7243;-60
2022/09/13 00:14:25;;;;;;;;;;;;;;;28.44;40.60;93967.16;4951265;28;8967;-60
2022/09/13 00:16:51;;;;;;;;;;;;;;;28.41;40.43;93963.44;4933642;28;9723;-60
2022/09/13 00:19:18;;;;;;;;;;;;;;;28.41;39.97;93965.47;4947813;28;7202;-60
2022/09/13 00:21:53;;;;;;;;;;;;;;;28.41;40.44;93959.94;4933073;28;7103;-60
2022/09/13 00:24:29;;;;;;;;;;;;;;;28.42;40.59;93964.94;4936725;28;7248;-60
2022/09/13 00:26:57;;;;;;;;;;;;;;;28.39;40.39;93957.72;4954103;28;9450;-60
2022/09/13 00:29:36;;;;;;;;;;;;;;;28.40;40.37;93956.44;4965724;28;7579;-60
2022/09/13 00:32:04;;;;;;;;;;;;;;;28.38;40.00;93962.50;4987966;28;9795;-60
2022/09/13 00:34:33;;;;;;;;;;;;;;;28.39;40.07;93954.94;5010250;28;6948;-60
2022/09/13 00:37:04;;;;;;;;;;;;;;;28.38;40.41;93956.25;5010971;28;7716;-60
2022/09/13 00:39:37;;;;;;;;;;;;;;;28.37;40.58;93960.28;4989911;28;7497;-60
2022/09/13 00:42:41;;;;;;;;;;;;;;;28.38;40.31;93959.00;4983237;28;9871;-60
2022/09/13 00:45:41;;;;;;;;;;;;;;;28.37;40.27;93965.81;4953929;28;8439;-60
2022/09/13 00:48:28;;;;;;;;;;;;;;;28.38;40.23;93961.03;4932339;29;7430;-60
2022/09/13 00:50:56;;;;;;;;;;;;;;;28.36;40.57;93956.75;4916697;29;7624;-60
2022/09/13 00:53:43;;;;;;;;;;;;;;;28.35;40.67;93958.06;4933073;29;7219;-60
2022/09/13 00:56:35;;;;;;;;;;;;;;;28.34;40.40;93962.09;4930580;29;8461;-60
2022/09/13 00:59:29;;;;;;;;;;;;;;;28.34;40.25;93961.34;4916941;29;7347;-60
2022/09/13 01:02:06;;;;;;;;;;;;;;;28.33;40.49;93968.16;4913774;29;7364;-60
2022/09/13 01:04:36;;;;;;;;;;;;;;;28.33;40.75;93957.84;4916628;29;8235;-60
2022/09/13 01:07:10;;;;;;;;;;;;;;;28.33;41.01;93962.63;4912171;29;7537;-60
2022/09/13 01:09:41;;;;;;;;;;;;;;;28.32;40.37;93961.13;4932047;29;7095;-60
2022/09/13 01:12:19;;;;;;;;;;;;;;;28.32;40.41;93959.13;4916113;29;7235;-60
2022/09/13 01:14:59;;;;;;;;;;;;;;;28.32;40.43;93955.59;4932111;29;9077;-60
2022/09/13 01:17:42;;;;;;;;;;;;;;;28.33;40.27;93959.88;4919996;29;7605;-60
2022/09/13 01:21:02;;;;;;;;;;;;;;;28.31;40.54;93962.44;4945475;28;7196;-60
2022/09/13 01:23:56;;;;;;;;;;;;;;;28.30;40.36;93956.16;4929090;28;6992;-60
2022/09/13 01:26:33;;;;;;;;;;;;;;;28.29;40.31;93953.94;4930759;28;9408;-60
2022/09/13 01:29:36;;;;;;;;;;;;;;;28.28;40.61;93957.97;4933293;28;7585;-60
2022/09/13 01:33:00;;;;;;;;;;;;;;;28.26;40.56;93961.28;4924999;29;7561;-60
2022/09/13 01:35:45;;;;;;;;;;;;;;;28.26;40.80;93963.31;4926955;29;7260;-60
2022/09/13 01:39:01;;;;;;;;;;;;;;;28.26;40.54;93971.59;4931620;28;7453;-60
2022/09/13 01:42:10;;;;;;;;;;;;;;;28.24;40.43;93969.38;4875651;29;7272;-60
2022/09/13 01:45:11;;;;;;;;;;;;;;;28.25;40.70;93976.38;4883359;29;7261;-60
2022/09/13 01:48:19;;;;;;;;;;;;;;;28.23;40.69;93967.16;4868199;29;7291;-60
2022/09/13 01:51:33;;;;;;;;;;;;;;;28.24;40.72;93974.91;4821798;29;7557;-60
2022/09/13 01:57:50;;;;;;;;;;;;;;;28.22;40.82;93971.19;4716255;30;7664;-60
2022/09/13 02:00:44;;;;;;;;;;;;;;;28.21;40.75;93970.44;4704010;30;7901;-60
2022/09/13 02:03:52;;;;;;;;;;;;;;;28.20;40.98;93971.00;4718533;30;8266;-60
2022/09/13 02:06:50;;;;;;;;;;;;;;;28.21;40.56;93980.75;4714266;30;7213;-60
2022/09/13 02:09:37;;;;;;;;;;;;;;;28.19;40.73;93977.78;4745255;30;7117;-60
2022/09/13 02:12:20;;;;;;;;;;;;;;;28.18;40.74;93981.84;4729238;30;9531;-60
2022/09/13 02:15:20;;;;;;;;;;;;;;;28.19;40.67;93980.56;4728532;30;7178;-60
2022/09/13 02:18:18;;;;;;;;;;;;;;;28.19;40.73;93981.31;4713058;30;7735;-60
2022/09/13 02:20:51;;;;;;;;;;;;;;;28.20;40.76;93979.28;4726165;30;7797;-59
2022/09/13 02:23:30;;;;;;;;;;;;;;;28.18;40.89;93973.56;4724528;30;7225;-60
2022/09/13 02:26:03;;;;;;;;;;;;;;;28.18;40.58;93981.84;4756653;29;7254;-60
2022/09/13 02:28:39;;;;;;;;;;;;;;;28.16;40.59;93979.63;4799995;29;7096;-60
2022/09/13 02:31:08;;;;;;;;;;;;;;;28.14;40.88;93973.16;4844108;29;7287;-60
2022/09/13 02:34:09;;;;;;;;;;;;;;;28.15;40.68;93974.63;4925295;29;7409;-59
2022/09/13 02:36:40;;;;;;;;;;;;;;;28.15;40.33;93966.31;4891259;29;7201;-60
2022/09/13 02:39:14;;;;;;;;;;;;;;;28.15;40.77;93974.63;4927199;29;7220;-60
2022/09/13 02:41:56;;;;;;;;;;;;;;;28.15;40.47;93971.84;4912827;29;7626;-60
2022/09/13 02:44:32;;;;;;;;;;;;;;;28.14;40.72;93978.69;4912181;29;7308;-60
2022/09/13 02:50:50;;;;;;;;;;;;;;;28.12;40.96;93968.13;4899257;29;7292;-60
2022/09/13 02:53:39;;;;;;;;;;;;;;;28.12;40.41;93967.41;4884839;29;7957;-60
2022/09/13 02:56:23;;;;;;;;;;;;;;;28.10;40.75;93969.97;4903758;29;7286;-60
2022/09/13 02:59:28;;;;;;;;;;;;;;;28.12;40.48;93968.13;4903883;29;7987;-60
2022/09/13 03:02:15;;;;;;;;;;;;;;;28.08;41.11;93955.91;4917832;29;7263;-60
2022/09/13 03:04:41;;;;;;;;;;;;;;;28.07;40.83;93959.97;4902943;29;7742;-60
2022/09/13 03:07:12;;;;;;;;;;;;;;;28.08;40.80;93961.44;4902270;29;7250;-60
2022/09/13 03:10:10;;;;;;;;;;;;;;;28.07;40.84;93959.97;4918794;29;7239;-60
2022/09/13 03:12:51;;;;;;;;;;;;;;;28.06;40.72;93959.22;4848932;29;9688;-61
2022/09/13 03:16:05;;;;;;;;;;;;;;;28.07;40.75;93965.50;4851605;29;7446;-59
2022/09/13 03:18:40;;;;;;;;;;;;;;;28.05;40.76;93965.31;4849681;29;9674;-60
2022/09/13 03:21:40;;;;;;;;;;;;;;;28.05;40.88;93957.00;4849342;29;6997;-60
2022/09/13 03:24:57;;;;;;;;;;;;;;;28.04;41.01;93961.78;4852960;29;8520;-60
2022/09/13 03:27:48;;;;;;;;;;;;;;;28.03;40.60;93965.09;4871988;29;7156;-60
2022/09/13 03:30:26;;;;;;;;;;;;;;;28.01;40.94;93962.88;4886966;29;9696;-60
2022/09/13 03:33:41;;;;;;;;;;;;;;;28.01;41.00;93968.41;4903906;29;9416;-60
2022/09/13 03:36:34;;;;;;;;;;;;;;;28.02;40.92;93966.38;4868295;29;9086;-60
2022/09/13 03:39:35;;;;;;;;;;;;;;;28.00;40.78;93955.84;4883697;29;9466;-60
2022/09/13 03:42:36;;;;;;;;;;;;;;;27.99;41.04;93948.13;4855789;29;7334;-60
2022/09/13 03:45:15;;;;;;;;;;;;;;;27.98;41.10;93963.94;4865269;29;7269;-60
2022/09/13 03:47:52;;;;;;;;;;;;;;;27.98;40.92;93957.66;4885777;29;7515;-60
2022/09/13 03:50:53;;;;;;;;;;;;;;;27.98;40.75;93965.97;4900178;29;6996;-60
2022/09/13 03:53:40;;;;;;;;;;;;;;;27.98;40.90;93974.25;4858493;29;7245;-60
2022/09/13 03:56:50;;;;;;;;;;;;;;;27.98;40.82;93974.25;4858403;29;7877;-61
2022/09/13 03:59:56;;;;;;;;;;;;;;;27.96;40.96;93974.03;4860906;29;7334;-60
2022/09/13 04:02:25;;;;;;;;;;;;;;;27.96;40.47;93963.72;4845861;29;7475;-60
2022/09/13 04:04:51;;;;;;;;;;;;;;;27.95;41.19;93967.03;4840162;29;7334;-60
2022/09/13 04:07:22;;;;;;;;;;;;;;;27.95;41.06;93967.03;4829944;29;7209;-60
2022/09/13 04:09:48;;;;;;;;;;;;;;;27.94;40.81;93968.28;4830702;29;8481;-60
2022/09/13 04:12:16;;;;;;;;;;;;;;;27.94;41.06;93971.06;4859176;29;7222;-60
2022/09/13 04:14:51;;;;;;;;;;;;;;;27.96;41.36;93974.03;4906542;29;6978;-60
2022/09/13 04:17:17;;;;;;;;;;;;;;;27.95;41.04;93967.75;4900741;29;9694;-60
2022/09/13 04:19:58;;;;;;;;;;;;;;;27.94;40.64;93973.81;4904820;29;7216;-60
2022/09/13 04:22:24;;;;;;;;;;;;;;;27.94;41.50;93968.28;4917197;29;7517;-60
2022/09/13 04:25:02;;;;;;;;;;;;;;;27.93;40.66;93964.78;4920238;29;7196;-60
2022/09/13 04:28:00;;;;;;;;;;;;;;;27.93;40.93;93961.25;4919183;29;7149;-60
2022/09/13 04:30:27;;;;;;;;;;;;;;;27.92;40.74;93970.84;4937196;28;7816;-60
2022/09/13 04:33:06;;;;;;;;;;;;;;;27.91;40.97;93978.41;4944115;28;9558;-60
2022/09/13 04:35:31;;;;;;;;;;;;;;;27.91;40.68;93974.88;4989182;28;7908;-60
2022/09/13 04:37:59;;;;;;;;;;;;;;;27.90;40.94;93965.88;4988035;28;7876;-60
2022/09/13 04:40:28;;;;;;;;;;;;;;;27.89;40.76;93969.91;4989462;28;6980;-60
2022/09/13 04:43:32;;;;;;;;;;;;;;;27.89;40.79;93972.66;4993727;28;7226;-60
2022/09/13 04:46:10;;;;;;;;;;;;;;;27.89;41.13;93974.69;5010747;28;7312;-60
2022/09/13 04:48:38;;;;;;;;;;;;;;;27.88;40.75;93970.44;4991656;28;9285;-60
2022/09/13 04:51:23;;;;;;;;;;;;;;;27.88;40.80;93964.91;5004794;28;7065;-60
2022/09/13 04:53:55;;;;;;;;;;;;;;;27.88;41.07;93973.22;5008539;28;7107;-60
2022/09/13 04:56:36;;;;;;;;;;;;;;;27.87;41.07;93971.72;5003678;28;7455;-60
2022/09/13 04:59:04;;;;;;;;;;;;;;;27.87;40.81;93977.97;4993328;28;6977;-59
2022/09/13 05:01:33;;;;;;;;;;;;;;;27.87;40.83;93969.69;4985235;28;7550;-60
2022/09/13 05:04:10;;;;;;;;;;;;;;;27.88;40.52;93967.69;4976407;28;7489;-60
2022/09/13 05:06:36;;;;;;;;;;;;;;;27.84;40.75;93970.75;4992614;28;8238;-60
2022/09/13 05:09:05;;;;;;;;;;;;;;;27.84;40.62;93978.31;4992816;28;8206;-60
2022/09/13 05:11:33;;;;;;;;;;;;;;;27.84;40.59;93981.09;5009143;28;7144;-61
2022/09/13 05:14:16;;;;;;;;;;;;;;;27.84;40.46;93975.56;4993057;28;7306;-60
2022/09/13 05:16:49;;;;;;;;;;;;;;;27.82;40.67;93980.88;4991334;28;7374;-60
2022/09/13 05:19:29;;;;;;;;;;;;;;;27.80;40.51;93981.41;4995376;28;6947;-59
2022/09/13 05:21:55;;;;;;;;;;;;;;;27.82;40.34;93987.13;4992702;28;7175;-60
2022/09/13 05:24:27;;;;;;;;;;;;;;;27.82;40.37;93975.34;4992933;28;6998;-60
2022/09/13 05:26:54;;;;;;;;;;;;;;;27.80;40.28;93977.88;5011330;28;7303;-60
2022/09/13 05:29:22;;;;;;;;;;;;;;;27.80;40.30;93980.66;5004819;28;7305;-60
2022/09/13 05:31:54;;;;;;;;;;;;;;;27.81;40.12;93982.16;4992477;28;6978;-60
2022/09/13 05:34:23;;;;;;;;;;;;;;;27.79;40.43;93979.19;4997230;28;9400;-60
2022/09/13 05:36:51;;;;;;;;;;;;;;;27.80;40.08;93984.16;5009216;28;7406;-60
2022/09/13 05:39:17;;;;;;;;;;;;;;;27.80;39.91;93991.72;4989923;28;7187;-60
2022/09/13 05:41:51;;;;;;;;;;;;;;;27.77;39.94;93982.50;4987135;28;7273;-60
2022/09/13 05:44:17;;;;;;;;;;;;;;;27.77;40.54;93981.75;4981591;28;7187;-60
2022/09/13 05:46:47;;;;;;;;;;;;;;;27.74;40.41;93963.44;4982071;28;7380;-60
2022/09/13 05:49:50;;;;;;;;;;;;;;;27.78;40.47;93972.16;4985703;28;7581;-60
2022/09/13 05:52:27;;;;;;;;;;;;;;;27.75;40.22;93959.41;4949078;28;7120;-60
2022/09/13 05:54:55;;;;;;;;;;;;;;;27.73;40.26;93959.94;4950716;28;7394;-61
2022/09/13 05:57:21;;;;;;;;;;;;;;;27.72;40.03;93974.31;4934871;28;8553;-60
2022/09/13 05:59:47;;;;;;;;;;;;;;;27.68;40.17;93973.88;4930283;28;7550;-60
2022/09/13 06:02:23;;;;;;;;;;;;;;;27.62;39.62;93971.25;4947417;28;6929;-60
2022/09/13 06:04:52;;;;;;;;;;;;;;;27.61;38.12;93967.00;4931115;28;7654;-60
2022/09/13 06:07:20;;;;;;;;;;;;;;;27.61;37.47;93964.97;4932520;28;7028;-60
2022/09/13 06:09:48;;;;;;;;;;;;;;;27.62;37.26;93965.72;4944616;28;7238;-60
2022/09/13 06:12:16;;;;;;;;;;;;;;;27.61;37.35;93959.44;4948237;28;7299;-60
2022/09/13 06:14:49;;;;;;;;;;;;;;;27.63;37.07;93962.41;4932865;29;7064;-61
2022/09/13 06:17:17;;;;;;;;;;;;;;;27.62;37.87;93954.69;4946198;28;8360;-60
2022/09/13 06:19:46;;;;;;;;;;;;;;;27.66;37.59;93959.88;4944147;28;7056;-60
2022/09/13 06:22:16;;;;;;;;;;;;;;;27.66;37.59;93952.31;4931565;28;7012;-60
2022/09/13 06:24:57;;;;;;;;;;;;;;;27.65;37.51;93950.81;4932732;28;7750;-60
2022/09/13 06:27:44;;;;;;;;;;;;;;;27.64;38.37;93950.06;4973347;28;9398;-60
2022/09/13 06:30:32;;;;;;;;;;;;;;;27.65;38.75;93937.00;4992529;28;9273;-60
2022/09/13 06:32:58;;;;;;;;;;;;;;;27.62;38.99;93930.53;5008895;28;7372;-60
2022/09/13 06:35:26;;;;;;;;;;;;;;;27.63;38.82;93929.28;5004473;28;7826;-60
2022/09/13 06:37:58;;;;;;;;;;;;;;;27.62;38.48;93933.28;5007970;28;7158;-60
2022/09/13 06:40:38;;;;;;;;;;;;;;;27.62;38.51;93933.28;4993725;28;6975;-60
2022/09/13 06:44:00;;;;;;;;;;;;;;;27.62;38.98;93932.56;5003222;28;8838;-60
2022/09/13 06:46:29;;;;;;;;;;;;;;;27.60;38.78;93933.09;4931494;29;7228;-60
2022/09/13 06:49:07;;;;;;;;;;;;;;;27.60;38.96;93935.84;4931909;29;7228;-60
2022/09/13 06:51:36;;;;;;;;;;;;;;;27.61;39.03;93931.06;4930966;29;9143;-60
2022/09/13 06:54:05;;;;;;;;;;;;;;;27.59;38.96;93937.16;4947658;29;9314;-60
2022/09/13 06:56:39;;;;;;;;;;;;;;;27.61;39.17;93940.13;4930972;29;7629;-60
2022/09/13 06:59:30;;;;;;;;;;;;;;;27.60;39.26;93933.09;4930690;29;7159;-60
2022/09/13 07:02:33;;;;;;;;;;;;;;;27.59;38.85;93923.34;4932198;29;7286;-60
2022/09/13 07:05:17;;;;;;;;;;;;;;;27.58;39.05;93926.59;4838210;29;8441;-60
2022/09/13 07:07:43;;;;;;;;;;;;;;;27.57;39.16;93934.19;4854699;29;7074;-60
2022/09/13 07:10:09;;;;;;;;;;;;;;;27.59;39.26;93926.09;4838345;29;7460;-60
2022/09/13 07:12:35;;;;;;;;;;;;;;;27.60;39.11;93930.31;4854797;29;6874;-61
2022/09/13 07:15:35;;;;;;;;;;;;;;;27.60;39.09;93922.03;4854506;29;7273;-60
2022/09/13 07:18:38;;;;;;;;;;;;;;;27.59;39.19;93915.03;4856538;29;7223;-60
2022/09/13 07:21:09;;;;;;;;;;;;;;;27.60;39.00;93924.06;4866272;29;6980;-60
2022/09/13 07:23:56;;;;;;;;;;;;;;;27.61;38.92;93920.03;4888533;29;9743;-60
2022/09/13 07:26:27;;;;;;;;;;;;;;;27.62;39.32;93916.72;4891062;29;7213;-60
2022/09/13 07:29:02;;;;;;;;;;;;;;;27.61;39.05;93908.97;4878207;29;9077;-60
2022/09/13 07:31:30;;;;;;;;;;;;;;;27.60;39.17;93902.69;4865883;29;7240;-60
2022/09/13 07:34:02;;;;;;;;;;;;;;;27.61;39.39;93901.44;4880739;29;6993;-60
2022/09/13 07:36:30;;;;;;;;;;;;;;;27.64;39.58;93899.63;4878552;29;7362;-60
2022/09/13 07:39:09;;;;;;;;;;;;;;;27.60;39.31;93888.13;4863278;29;8490;-60
2022/09/13 07:41:45;;;;;;;;;;;;;;;27.63;39.37;93895.38;4925778;28;7304;-60
2022/09/13 07:44:26;;;;;;;;;;;;;;;27.63;39.20;93898.13;4934131;28;6975;-60
2022/09/13 07:47:00;;;;;;;;;;;;;;;27.63;39.05;93904.41;4932579;29;7236;-60
2022/09/13 07:49:35;;;;;;;;;;;;;;;27.63;39.46;93906.41;4951308;28;7581;-60
2022/09/13 07:52:06;;;;;;;;;;;;;;;27.65;39.35;93909.38;4950207;28;7232;-60
2022/09/13 07:54:44;;;;;;;;;;;;;;;27.64;38.90;93910.69;4965260;28;7088;-60
2022/09/13 07:57:18;;;;;;;;;;;;;;;27.62;39.36;93899.41;4995234;28;7232;-60
2022/09/13 08:00:17;;;;;;;;;;;;;;;27.64;39.34;93911.41;4989853;28;7182;-60
2022/09/13 08:02:51;;;;;;;;;;;;;;;27.67;39.31;93909.59;4952248;28;7317;-60
2022/09/13 08:05:19;;;;;;;;;;;;;;;27.69;39.79;93912.56;4937924;28;7401;-60
2022/09/13 08:07:45;;;;;;;;;;;;;;;27.69;38.97;93912.56;4957133;28;9545;-60
2022/09/13 08:10:13;;;;;;;;;;;;;;;27.70;39.38;93916.06;4954922;28;6982;-60
2022/09/13 08:12:48;;;;;;;;;;;;;;;27.71;39.55;93920.31;4930982;28;7625;-60
2022/09/13 08:15:34;;;;;;;;;;;;;;;27.70;39.17;93925.09;4951578;28;7735;-60
2022/09/13 08:18:04;;;;;;;;;;;;;;;27.70;39.31;93927.13;4937204;28;9204;-60
2022/09/13 08:20:39;;;;;;;;;;;;;;;27.72;39.94;93927.31;4954713;28;7252;-60
2022/09/13 08:23:14;;;;;;;;;;;;;;;27.73;39.37;93926.06;4937433;28;6856;-60
2022/09/13 08:25:52;;;;;;;;;;;;;;;27.72;39.19;93921.81;4957527;28;6861;-60
2022/09/13 08:28:27;;;;;;;;;;;;;;;27.72;39.04;93910.75;4957619;28;7520;-60
2022/09/13 08:31:16;;;;;;;;;;;;;;;27.73;39.33;93906.72;4959768;28;9409;-60
2022/09/13 08:33:47;;;;;;;;;;;;;;;27.72;39.41;93907.97;4957543;28;7403;-60
2022/09/13 08:36:17;;;;;;;;;;;;;;;27.70;40.18;93911.28;4943137;28;10062;-60
2022/09/13 08:38:53;;;;;;;;;;;;;;;27.71;39.65;93918.28;4962936;28;8559;-60
2022/09/13 08:41:31;;;;;;;;;;;;;;;27.67;39.92;93922.66;5000224;28;7653;-61
2022/09/13 08:44:00;;;;;;;;;;;;;;;27.68;39.89;93919.38;4985805;28;7507;-61
2022/09/13 08:46:35;;;;;;;;;;;;;;;27.69;39.90;93922.88;4988773;28;7608;-60
2022/09/13 08:49:13;;;;;;;;;;;;;;;27.70;39.92;93921.59;5000115;28;7278;-61
2022/09/13 08:52:03;;;;;;;;;;;;;;;27.71;40.21;93926.56;5008266;28;7217;-61
2022/09/13 08:54:49;;;;;;;;;;;;;;;27.73;39.70;93928.81;5007409;28;7235;-61
2022/09/13 08:57:27;;;;;;;;;;;;;;;27.73;40.46;93917.78;5008583;28;7064;-61
2022/09/13 09:00:16;;;;;;;;;;;;;;;27.74;39.77;93917.22;5010112;28;9743;-60
2022/09/13 09:02:47;;;;;;;;;;;;;;;27.76;40.16;93924.97;4988960;28;9615;-60
2022/09/13 09:05:22;;;;;;;;;;;;;;;27.75;40.16;93920.75;5008262;28;7115;-60
2022/09/13 09:08:00;;;;;;;;;;;;;;;27.75;40.08;93920.75;5008761;28;9458;-60
2022/09/13 09:10:32;;;;;;;;;;;;;;;27.76;39.91;93920.19;4992765;28;7141;-60
2022/09/13 09:13:28;;;;;;;;;;;;;;;27.77;39.94;93918.94;4993957;28;9391;-60
2022/09/13 09:16:24;;;;;;;;;;;;;;;27.77;39.84;93918.19;4989533;28;8085;-60
2022/09/13 09:19:15;;;;;;;;;;;;;;;27.77;40.00;93920.94;4981840;28;7887;-60
2022/09/13 09:21:46;;;;;;;;;;;;;;;27.75;40.01;93915.97;4988366;28;7189;-60
2022/09/13 09:24:22;;;;;;;;;;;;;;;27.76;40.71;93908.38;4994225;28;7230;-60
2022/09/13 09:27:14;;;;;;;;;;;;;;;27.77;40.40;93907.13;4992071;28;9453;-60
2022/09/13 09:29:52;;;;;;;;;;;;;;;27.77;40.31;93901.59;4976551;28;7657;-60
2022/09/13 09:32:49;;;;;;;;;;;;;;;27.78;40.25;93903.06;4989072;28;7118;-60
2022/09/13 09:35:48;;;;;;;;;;;;;;;27.79;40.58;93902.53;4987750;28;9355;-60
2022/09/13 09:38:17;;;;;;;;;;;;;;;27.80;40.28;93894.97;4995103;28;9718;-60
2022/09/13 09:40:46;;;;;;;;;;;;;;;27.81;40.43;93899.25;4988578;28;9664;-60
2022/09/13 09:43:37;;;;;;;;;;;;;;;27.82;40.27;93903.50;4984965;28;7893;-60
2022/09/13 09:46:26;;;;;;;;;;;;;;;27.82;40.25;93898.69;4989626;28;7375;-60
2022/09/13 09:50:07;;;;;;;;;;;;;;;27.83;40.52;93897.44;4989663;28;8366;-60
2022/09/13 09:52:06;;;;;;;;;;;;;;;27.84;40.27;93895.41;4987406;28;7118;-60
2022/09/13 09:54:35;;;;;;;;;;;;;;;27.86;40.30;93892.84;4993911;28;7393;-60
2022/09/13 09:57:01;;;;;;;;;;;;;;;27.86;40.19;93887.31;5001731;28;6993;-60
2022/09/13 09:59:37;;;;;;;;;;;;;;;27.84;40.54;93889.88;4983004;28;9610;-59
2022/09/13 10:02:44;;;;;;;;;;;;;;;27.87;40.47;93897.84;4990432;28;7199;-60
2022/09/13 10:05:29;;;;;;;;;;;;;;;27.87;40.30;93892.31;4930695;28;7710;-60
2022/09/13 10:08:01;;;;;;;;;;;;;;;27.87;40.42;93897.09;4929270;28;7201;-60
2022/09/13 10:10:43;;;;;;;;;;;;;;;27.89;39.92;93889.00;4932767;28;7311;-60
2022/09/13 10:13:31;;;;;;;;;;;;;;;27.88;40.26;93895.81;4949347;28;7553;-60
2022/09/13 10:16:26;;;;;;;;;;;;;;;27.90;40.15;93887.72;4934618;28;7343;-60
2022/09/13 10:19:22;;;;;;;;;;;;;;;27.90;40.07;93884.97;4935215;28;6996;-60
2022/09/13 10:22:11;;;;;;;;;;;;;;;27.90;40.37;93896.03;4934665;28;9261;-60
2022/09/13 10:24:39;;;;;;;;;;;;;;;27.92;40.06;93887.94;4950906;28;7313;-60
2022/09/13 10:27:19;;;;;;;;;;;;;;;27.92;39.88;93888.69;4933148;28;7199;-60
2022/09/13 10:30:05;;;;;;;;;;;;;;;27.93;40.12;93889.41;4949130;28;9588;-60
2022/09/13 10:32:32;;;;;;;;;;;;;;;27.94;39.91;93885.38;4947581;28;7248;-60
2022/09/13 10:35:18;;;;;;;;;;;;;;;27.95;40.35;93895.16;4953990;28;9521;-60
2022/09/13 10:37:44;;;;;;;;;;;;;;;27.96;40.29;93882.81;4990919;28;6856;-60
2022/09/13 10:40:38;;;;;;;;;;;;;;;27.96;40.19;93880.03;4973790;28;8442;-60
2022/09/13 10:43:15;;;;;;;;;;;;;;;27.96;40.64;93888.34;4928471;29;7776;-60
2022/09/13 10:46:03;;;;;;;;;;;;;;;27.98;40.16;93888.56;4928258;29;8658;-60
2022/09/13 10:48:57;;;;;;;;;;;;;;;27.98;40.31;93885.81;4923116;29;7461;-60
2022/09/13 10:51:36;;;;;;;;;;;;;;;27.99;40.57;93881.78;4930990;29;7065;-60
2022/09/13 10:54:20;;;;;;;;;;;;;;;28.00;40.22;93872.94;4927787;29;7529;-60
2022/09/13 10:56:59;;;;;;;;;;;;;;;28.00;40.22;93864.63;4925956;29;7224;-60
2022/09/13 10:59:39;;;;;;;;;;;;;;;28.02;40.24;93861.31;4929899;29;9475;-60
2022/09/13 11:05:41;;;;;;;;;;;;;;;28.05;40.33;93846.44;4935122;28;7357;-60
2022/09/13 11:08:25;;;;;;;;;;;;;;;28.07;40.38;93849.41;4934211;28;8181;-60
2022/09/13 11:11:10;;;;;;;;;;;;;;;28.07;40.37;93852.16;4947915;28;8277;-61
2022/09/13 11:14:15;;;;;;;;;;;;;;;28.07;40.49;93841.09;4950268;28;9343;-60
2022/09/13 11:17:11;;;;;;;;;;;;;;;28.06;40.30;93832.06;4952553;28;7597;-60
2022/09/13 11:19:59;;;;;;;;;;;;;;;28.08;40.29;93834.28;4963214;28;10562;-60
2022/09/13 11:23:24;;;;;;;;;;;;;;;28.08;40.28;93829.50;5006786;28;8466;-60
2022/09/13 11:26:01;;;;;;;;;;;;;;;28.08;39.97;93823.22;5007556;28;7368;-60
2022/09/13 11:28:47;;;;;;;;;;;;;;;28.08;40.32;93821.19;5007310;28;7151;-60
2022/09/13 11:31:28;;;;;;;;;;;;;;;28.07;40.36;93818.97;4990056;28;9011;-60
2022/09/13 11:34:35;;;;;;;;;;;;;;;28.04;40.20;93811.75;4994460;28;7470;-61
2022/09/13 11:37:26;;;;;;;;;;;;;;;28.04;40.42;93812.50;4961685;28;9014;-59
2022/09/13 11:40:27;;;;;;;;;;;;;;;28.04;40.26;93806.97;4953327;28;8487;-61
2022/09/13 11:43:08;;;;;;;;;;;;;;;28.05;40.38;93805.72;4971322;28;6856;-60
2022/09/13 11:45:53;;;;;;;;;;;;;;;28.07;40.49;93810.69;4970420;28;8861;-60
2022/09/13 11:48:43;;;;;;;;;;;;;;;28.08;40.24;93812.16;4955275;28;9119;-60
2022/09/13 11:51:15;;;;;;;;;;;;;;;28.09;40.04;93811.63;4965479;28;7217;-60
2022/09/13 11:54:02;;;;;;;;;;;;;;;28.12;40.06;93816.06;4963095;28;7314;-60
2022/09/13 11:56:48;;;;;;;;;;;;;;;28.14;40.05;93821.78;4953745;28;6998;-60
2022/09/13 11:59:39;;;;;;;;;;;;;;;28.16;39.68;93812.97;4962449;28;8813;-60
2022/09/13 12:02:33;;;;;;;;;;;;;;;28.17;39.76;93809.66;4966956;28;7219;-60
2022/09/13 12:05:39;;;;;;;;;;;;;;;28.18;40.03;93805.63;4960409;28;7462;-59
2022/09/13 12:08:31;;;;;;;;;;;;;;;28.22;40.11;93805.28;4929591;28;6998;-60
2022/09/13 12:11:10;;;;;;;;;;;;;;;28.22;40.06;93802.50;4929037;28;7683;-60
2022/09/13 12:13:48;;;;;;;;;;;;;;;28.25;40.11;93804.19;4917414;28;7234;-60
2022/09/13 12:16:25;;;;;;;;;;;;;;;28.26;40.19;93808.44;4893223;29;7374;-60
2022/09/13 12:19:00;;;;;;;;;;;;;;;28.27;40.47;93802.34;4916461;28;8948;-60
2022/09/13 12:21:34;;;;;;;;;;;;;;;28.27;40.48;93796.81;4911828;29;10423;-60
2022/09/13 12:24:02;;;;;;;;;;;;;;;28.27;40.40;93796.09;4910099;29;9392;-60
2022/09/13 12:27:04;;;;;;;;;;;;;;;28.26;40.02;93787.06;4914069;29;7519;-60
2022/09/13 12:29:55;;;;;;;;;;;;;;;28.25;40.09;93785.56;4928589;28;7244;-60
2022/09/13 12:32:22;;;;;;;;;;;;;;;28.25;40.67;93780.03;4913450;29;9601;-60
2022/09/13 12:34:54;;;;;;;;;;;;;;;28.26;40.45;93783.53;4927012;28;7647;-59
2022/09/13 12:37:44;;;;;;;;;;;;;;;28.26;40.40;93778.00;4910606;29;9021;-60
2022/09/13 12:40:32;;;;;;;;;;;;;;;28.26;40.23;93780.78;4907836;29;9478;-60
2022/09/13 12:43:45;;;;;;;;;;;;;;;28.27;40.47;93771.22;4979815;28;7188;-60
2022/09/13 12:46:51;;;;;;;;;;;;;;;28.29;40.28;93763.84;5009189;28;7522;-60
2022/09/13 12:50:00;;;;;;;;;;;;;;;28.30;40.34;93761.81;5005551;28;9206;-60
2022/09/13 12:52:45;;;;;;;;;;;;;;;28.31;40.43;93757.75;4988596;28;7400;-60
2022/09/13 12:56:01;;;;;;;;;;;;;;;28.32;40.08;93757.22;4981005;28;9434;-60
2022/09/13 12:59:00;;;;;;;;;;;;;;;28.31;40.30;93749.47;4991184;28;7682;-60
2022/09/13 13:01:31;;;;;;;;;;;;;;;28.36;40.25;93748.59;4991862;28;8646;-60
2022/09/13 13:04:00;;;;;;;;;;;;;;;28.34;40.22;93745.59;4988808;28;7251;-60
2022/09/13 13:06:52;;;;;;;;;;;;;;;28.37;40.05;93744.53;4998887;28;7420;-60
2022/09/13 13:09:21;;;;;;;;;;;;;;;28.36;40.26;93741.00;4973913;28;9309;-60
2022/09/13 13:11:53;;;;;;;;;;;;;;;28.38;40.15;93751.53;5006254;28;6995;-60
2022/09/13 13:14:38;;;;;;;;;;;;;;;28.41;40.23;93741.41;5005567;28;7286;-60
2022/09/13 13:17:41;;;;;;;;;;;;;;;28.40;40.18;93745.47;4985201;28;7328;-60
2022/09/13 13:20:53;;;;;;;;;;;;;;;28.39;40.37;93744.72;4994046;28;9726;-60
2022/09/13 13:23:41;;;;;;;;;;;;;;;28.37;40.24;93739.00;4989915;28;7281;-60
2022/09/13 13:26:46;;;;;;;;;;;;;;;28.35;40.59;93741.56;4989376;28;7163;-60
2022/09/13 13:29:32;;;;;;;;;;;;;;;28.35;40.64;93739.53;5006675;28;7202;-60
2022/09/13 13:32:01;;;;;;;;;;;;;;;28.35;40.70;93741.56;4988313;28;7241;-60
2022/09/13 13:34:41;;;;;;;;;;;;;;;28.33;40.51;93744.13;5001522;28;7450;-60
2022/09/13 13:37:17;;;;;;;;;;;;;;;28.32;40.79;93743.38;5011096;28;7255;-61
2022/09/13 13:39:46;;;;;;;;;;;;;;;28.32;40.81;93740.63;5003179;28;9433;-60
2022/09/13 13:42:37;;;;;;;;;;;;;;;28.32;40.60;93737.84;4986199;28;6996;-60
2022/09/13 13:45:33;;;;;;;;;;;;;;;28.36;40.51;93740.28;5000709;28;7193;-60
2022/09/13 13:48:14;;;;;;;;;;;;;;;28.39;39.68;93753.00;4984258;28;7462;-60
2022/09/13 13:51:18;;;;;;;;;;;;;;;28.43;40.50;93749.91;4987301;28;8437;-60
2022/09/13 13:54:39;;;;;;;;;;;;;;;28.44;40.21;93752.13;5006216;28;9717;-60
2022/09/13 13:57:26;;;;;;;;;;;;;;;28.47;40.27;93747.53;4945935;28;7280;-60
2022/09/13 14:00:14;;;;;;;;;;;;;;;28.50;40.37;93736.09;4945875;28;7203;-61
2022/09/13 14:03:04;;;;;;;;;;;;;;;28.52;40.16;93736.31;4928314;29;7285;-60
2022/09/13 14:06:16;;;;;;;;;;;;;;;28.52;40.03;93736.31;4946906;28;7241;-60
2022/09/13 14:09:05;;;;;;;;;;;;;;;28.52;39.83;93733.53;4946113;28;7431;-60
2022/09/13 14:12:01;;;;;;;;;;;;;;;28.53;40.26;93729.50;4941712;28;7185;-60
2022/09/13 14:14:45;;;;;;;;;;;;;;;28.53;40.31;93734.28;4929685;28;9420;-60
2022/09/13 14:17:28;;;;;;;;;;;;;;;28.52;40.11;93728.00;4940440;28;9211;-60
2022/09/13 14:20:07;;;;;;;;;;;;;;;28.55;39.87;93726.91;4941810;28;7216;-60
2022/09/13 14:22:33;;;;;;;;;;;;;;;28.57;40.07;93721.59;4924200;28;7009;-60
2022/09/13 14:25:22;;;;;;;;;;;;;;;28.56;40.06;93713.84;4927263;28;7191;-60
2022/09/13 14:27:57;;;;;;;;;;;;;;;28.56;40.20;93706.25;4940495;28;7274;-60